createdAt,value
2023-02-04T00:00:32.467Z,3.5
2023-02-04T00:01:36.025Z,3.5
2023-02-04T00:02:40.076Z,3.5
2023-02-04T00:03:42.602Z,3.4
2023-02-04T00:04:46.009Z,3.5
2023-02-04T00:05:49.498Z,3.5
2023-02-04T00:06:52.123Z,3.5
2023-02-04T00:07:55.927Z,3.4
2023-02-04T00:08:58.706Z,3.4
2023-02-04T00:10:01.812Z,3.4
2023-02-04T00:11:05.490Z,3.4
2023-02-04T00:12:08.212Z,3.4
2023-02-04T00:13:11.611Z,3.3
2023-02-04T00:14:15.409Z,3.3
2023-02-04T00:15:18.822Z,3.3
2023-02-04T00:16:22.171Z,3.3
2023-02-04T00:17:25.108Z,3.3
2023-02-04T00:18:27.837Z,3.2
2023-02-04T00:19:30.540Z,3.2
2023-02-04T00:20:34.716Z,3.2
2023-02-04T00:21:37.798Z,3.2
2023-02-04T00:22:40.787Z,3.2
2023-02-04T00:23:43.585Z,3.2
2023-02-04T00:24:46.986Z,3.2
2023-02-04T00:25:49.967Z,3.2
2023-02-04T00:26:52.691Z,3.2
2023-02-04T00:27:55.921Z,3.2
2023-02-04T00:28:59.405Z,3.2
2023-02-04T00:30:03.470Z,3.2
2023-02-04T00:31:06.825Z,3.2
2023-02-04T00:32:10.973Z,3.2
2023-02-04T00:33:13.995Z,3.3
2023-02-04T00:34:17.334Z,3.2
2023-02-04T00:35:20.862Z,3.2
2023-02-04T00:36:23.012Z,3.2
2023-02-04T00:37:26.642Z,3.1
2023-02-04T00:38:29.352Z,3.1
2023-02-04T00:39:32.526Z,3.1
2023-02-04T00:40:35.881Z,3.1
2023-02-04T00:41:38.940Z,3.1
2023-02-04T00:42:42.292Z,3.1
2023-02-04T00:43:45.430Z,3.1
2023-02-04T00:44:48.896Z,3.1
2023-02-04T00:45:52.644Z,3.1
2023-02-04T00:46:55.976Z,3.1
2023-02-04T00:48:00.053Z,3.1
2023-02-04T00:49:04.132Z,3
2023-02-04T00:50:07.424Z,3
2023-02-04T00:51:11.281Z,3
2023-02-04T00:52:14.279Z,3
2023-02-04T00:53:17.718Z,3
2023-02-04T00:54:21.365Z,3.1
2023-02-04T00:55:25.365Z,3.1
2023-02-04T00:56:28.721Z,3.2
2023-02-04T00:57:32.038Z,3.2
2023-02-04T00:58:35.741Z,3.2
2023-02-04T00:59:39.750Z,3.3
2023-02-04T01:00:43.201Z,3.3
2023-02-04T01:01:47.027Z,3.3
2023-02-04T01:02:50.342Z,3.3
2023-02-04T01:03:54.086Z,3.3
2023-02-04T01:04:58.095Z,3.3
2023-02-04T01:06:01.879Z,3.3
2023-02-04T01:07:04.948Z,3.3
2023-02-04T01:08:07.978Z,3.3
2023-02-04T01:09:10.748Z,3.3
2023-02-04T01:10:14.725Z,3.3
2023-02-04T01:11:17.545Z,3.3
2023-02-04T01:12:21.212Z,3.3
2023-02-04T01:13:23.838Z,3.3
2023-02-04T01:14:26.713Z,3.4
2023-02-04T01:15:29.728Z,3.4
2023-02-04T01:16:33.303Z,3.4
2023-02-04T01:17:37.561Z,3.4
2023-02-04T01:18:41.068Z,3.3
2023-02-04T01:19:43.830Z,3.4
2023-02-04T01:20:47.530Z,3.4
2023-02-04T01:21:50.523Z,3.4
2023-02-04T01:22:54.184Z,3.4
2023-02-04T01:23:57.350Z,3.4
2023-02-04T01:25:01.031Z,3.4
2023-02-04T01:26:04.468Z,3.4
2023-02-04T01:27:06.884Z,3.4
2023-02-04T01:28:10.613Z,3.4
2023-02-04T01:29:13.846Z,3.5
2023-02-04T01:30:17.290Z,3.4
2023-02-04T01:31:21.646Z,3.5
2023-02-04T01:32:25.260Z,3.5
2023-02-04T01:33:29.407Z,3.5
2023-02-04T01:34:32.484Z,3.5
2023-02-04T01:35:35.676Z,3.5
2023-02-04T01:36:39.054Z,3.5
2023-02-04T01:37:42.722Z,3.5
2023-02-04T01:38:46.088Z,3.5
2023-02-04T01:39:49.207Z,3.6
2023-02-04T01:40:52.251Z,3.6
2023-02-04T01:41:55.510Z,3.5
2023-02-04T01:42:58.849Z,3.6
2023-02-04T01:44:02.130Z,3.6
2023-02-04T01:45:04.845Z,3.6
2023-02-04T01:46:08.577Z,3.6
2023-02-04T01:47:11.628Z,3.6
2023-02-04T01:48:15.120Z,3.6
2023-02-04T01:49:18.868Z,3.6
2023-02-04T01:50:21.868Z,3.6
2023-02-04T01:51:25.254Z,3.6
2023-02-04T01:52:28.345Z,3.5
2023-02-04T01:53:31.319Z,3.6
2023-02-04T01:54:34.327Z,3.6
2023-02-04T01:55:37.427Z,3.6
2023-02-04T01:56:40.854Z,3.5
2023-02-04T01:57:44.116Z,3.5
2023-02-04T01:58:47.128Z,3.5
2023-02-04T01:59:50.497Z,3.5
2023-02-04T02:00:53.904Z,3.5
2023-02-04T02:01:57.304Z,3.5
2023-02-04T02:03:00.764Z,3.5
2023-02-04T02:04:03.901Z,3.6
2023-02-04T02:05:07.692Z,3.5
2023-02-04T02:06:10.398Z,3.5
2023-02-04T02:07:12.838Z,3.5
2023-02-04T02:08:16.360Z,3.5
2023-02-04T02:09:19.428Z,3.5
2023-02-04T02:10:22.862Z,3.5
2023-02-04T02:11:26.583Z,3.5
2023-02-04T02:12:29.644Z,3.5
2023-02-04T02:13:33.435Z,3.5
2023-02-04T02:14:36.842Z,3.5
2023-02-04T02:15:39.774Z,3.5
2023-02-04T02:16:44.330Z,3.5
2023-02-04T02:17:47.518Z,3.5
2023-02-04T02:18:50.225Z,3.5
2023-02-04T02:19:53.994Z,3.5
2023-02-04T02:20:57.541Z,3.6
2023-02-04T02:22:00.810Z,3.6
2023-02-04T02:23:04.366Z,3.6
2023-02-04T02:24:06.873Z,3.6
2023-02-04T02:25:10.256Z,3.6
2023-02-04T02:26:13.255Z,3.6
2023-02-04T02:27:16.607Z,3.6
2023-02-04T02:28:20.127Z,3.7
2023-02-04T02:29:23.266Z,3.6
2023-02-04T02:30:26.504Z,3.6
2023-02-04T02:31:30.413Z,3.6
2023-02-04T02:32:33.464Z,3.7
2023-02-04T02:33:36.865Z,3.7
2023-02-04T02:34:39.964Z,3.7
2023-02-04T02:35:43.440Z,3.7
2023-02-04T02:36:47.484Z,3.7
2023-02-04T02:37:50.773Z,3.7
2023-02-04T02:38:54.489Z,3.7
2023-02-04T02:39:57.648Z,3.7
2023-02-04T02:41:00.708Z,3.7
2023-02-04T02:42:03.768Z,3.7
2023-02-04T02:43:06.661Z,3.7
2023-02-04T02:44:09.647Z,3.7
2023-02-04T02:45:12.701Z,3.7
2023-02-04T02:46:16.841Z,3.7
2023-02-04T02:47:19.986Z,3.7
2023-02-04T02:48:22.762Z,3.7
2023-02-04T02:49:26.098Z,3.7
2023-02-04T02:50:31.224Z,3.7
2023-02-04T02:51:35.652Z,3.7
2023-02-04T02:52:39.387Z,3.7
2023-02-04T02:53:43.186Z,3.7
2023-02-04T02:54:45.609Z,3.7
2023-02-04T02:55:48.364Z,3.7
2023-02-04T02:56:52.067Z,3.7
2023-02-04T02:57:54.874Z,3.7
2023-02-04T02:58:58.337Z,3.7
2023-02-04T03:00:02.020Z,3.7
2023-02-04T03:01:05.385Z,3.7
2023-02-04T03:02:08.778Z,3.7
2023-02-04T03:03:12.182Z,3.7
2023-02-04T03:04:14.981Z,3.7
2023-02-04T03:05:17.750Z,3.7
2023-02-04T03:06:20.056Z,3.7
2023-02-04T03:07:23.835Z,3.7
2023-02-04T03:08:27.366Z,3.6
2023-02-04T03:09:31.099Z,3.7
2023-02-04T03:10:34.681Z,3.7
2023-02-04T03:11:38.748Z,3.7
2023-02-04T03:12:41.751Z,3.7
2023-02-04T03:13:44.529Z,3.7
2023-02-04T03:14:47.967Z,3.7
2023-02-04T03:15:51.501Z,3.7
2023-02-04T03:16:54.982Z,3.7
2023-02-04T03:17:58.722Z,3.7
2023-02-04T03:19:01.932Z,3.7
2023-02-04T03:20:04.950Z,3.7
2023-02-04T03:21:08.061Z,3.7
2023-02-04T03:22:11.186Z,3.7
2023-02-04T03:23:15.086Z,3.7
2023-02-04T03:24:19.142Z,3.7
2023-02-04T03:25:22.128Z,3.7
2023-02-04T03:26:25.366Z,3.7
2023-02-04T03:27:29.745Z,3.7
2023-02-04T03:28:32.725Z,3.6
2023-02-04T03:29:35.159Z,3.6
2023-02-04T03:30:37.928Z,3.6
2023-02-04T03:31:41.945Z,3.6
2023-02-04T03:32:45.802Z,3.6
2023-02-04T03:33:48.907Z,3.5
2023-02-04T03:34:52.560Z,3.5
2023-02-04T03:35:55.996Z,3.5
2023-02-04T03:36:59.276Z,3.5
2023-02-04T03:38:02.960Z,3.4
2023-02-04T03:39:06.379Z,3.4
2023-02-04T03:40:09.883Z,3.4
2023-02-04T03:41:12.648Z,3.4
2023-02-04T03:42:15.072Z,3.3
2023-02-04T03:43:18.145Z,3.3
2023-02-04T03:44:22.143Z,3.3
2023-02-04T03:45:45.427Z,3.3
2023-02-04T03:46:49.035Z,3.2
2023-02-04T03:47:52.206Z,3.2
2023-02-04T03:48:55.201Z,3.2
2023-02-04T03:49:58.472Z,3.2
2023-02-04T03:51:01.665Z,3.2
2023-02-04T03:52:04.869Z,3.2
2023-02-04T03:53:07.669Z,3.2
2023-02-04T03:54:11.554Z,3.2
2023-02-04T03:55:15.647Z,3.2
2023-02-04T03:56:19.095Z,3.2
2023-02-04T03:57:21.893Z,3.2
2023-02-04T03:58:25.278Z,3.2
2023-02-04T03:59:28.744Z,3.2
2023-02-04T04:00:33.879Z,3.2
2023-02-04T04:01:37.541Z,3.2
2023-02-04T04:02:40.735Z,3.2
2023-02-04T04:03:43.519Z,3.1
2023-02-04T04:04:46.313Z,3.1
2023-02-04T04:05:49.098Z,3.1
2023-02-04T04:06:52.151Z,3.1
2023-02-04T04:07:54.971Z,3.1
2023-02-04T04:08:58.347Z,3
2023-02-04T04:10:01.631Z,3
2023-02-04T04:11:05.727Z,3
2023-02-04T04:12:09.395Z,3
2023-02-04T04:13:12.749Z,3
2023-02-04T04:14:15.555Z,3
2023-02-04T04:15:19.369Z,3
2023-02-04T04:16:22.717Z,3
2023-02-04T04:17:26.221Z,3
2023-02-04T04:18:29.502Z,3
2023-02-04T04:19:32.896Z,3
2023-02-04T04:20:36.951Z,3
2023-02-04T04:21:40.927Z,3
2023-02-04T04:22:43.705Z,3
2023-02-04T04:23:47.179Z,2.9
2023-02-04T04:24:50.533Z,2.9
2023-02-04T04:25:54.006Z,2.9
2023-02-04T04:26:58.047Z,2.9
2023-02-04T04:28:01.421Z,2.9
2023-02-04T04:29:04.705Z,2.8
2023-02-04T04:30:07.529Z,2.8
2023-02-04T04:31:11.556Z,2.8
2023-02-04T04:32:15.244Z,2.8
2023-02-04T04:33:18.030Z,2.8
2023-02-04T04:34:21.678Z,2.8
2023-02-04T04:35:24.733Z,2.7
2023-02-04T04:36:28.108Z,2.7
2023-02-04T04:37:30.825Z,2.7
2023-02-04T04:38:33.881Z,2.7
2023-02-04T04:39:37.156Z,2.6
2023-02-04T04:40:40.423Z,2.6
2023-02-04T04:41:44.324Z,2.6
2023-02-04T04:42:48.394Z,2.6
2023-02-04T04:43:50.905Z,2.6
2023-02-04T04:44:54.267Z,2.6
2023-02-04T04:45:57.344Z,2.5
2023-02-04T04:47:00.265Z,2.5
2023-02-04T04:48:03.951Z,2.5
2023-02-04T04:49:07.286Z,2.5
2023-02-04T04:50:09.168Z,2.5
2023-02-04T04:51:12.453Z,2.5
2023-02-04T04:52:15.805Z,2.5
2023-02-04T04:53:18.047Z,2.4
2023-02-04T04:54:21.142Z,2.4
2023-02-04T04:55:23.734Z,2.4
2023-02-04T04:56:27.165Z,2.4
2023-02-04T04:57:31.025Z,2.4
2023-02-04T04:58:35.209Z,2.4
2023-02-04T04:59:38.285Z,2.4
2023-02-04T05:00:41.605Z,2.4
2023-02-04T05:01:45.072Z,2.3
2023-02-04T05:02:48.136Z,2.3
2023-02-04T05:03:51.501Z,2.3
2023-02-04T05:04:54.830Z,2.3
2023-02-04T05:05:57.850Z,2.3
2023-02-04T05:07:01.037Z,2.3
2023-02-04T05:08:04.575Z,2.3
2023-02-04T05:09:07.741Z,2.3
2023-02-04T05:10:11.267Z,2.3
2023-02-04T05:11:14.439Z,2.3
2023-02-04T05:12:18.438Z,2.3
2023-02-04T05:13:21.618Z,2.3
2023-02-04T05:14:25.635Z,2.3
2023-02-04T05:15:28.917Z,2.3
2023-02-04T05:16:32.432Z,2.3
2023-02-04T05:17:35.347Z,2.3
2023-02-04T05:18:38.328Z,2.3
2023-02-04T05:19:41.974Z,2.3
2023-02-04T05:20:45.668Z,2.3
2023-02-04T05:21:48.971Z,2.3
2023-02-04T05:22:52.028Z,2.3
2023-02-04T05:23:54.532Z,2.3
2023-02-04T05:24:57.963Z,2.4
2023-02-04T05:26:01.231Z,2.4
2023-02-04T05:27:05.261Z,2.4
2023-02-04T05:28:08.627Z,2.4
2023-02-04T05:29:12.847Z,2.5
2023-02-04T05:30:16.670Z,2.5
2023-02-04T05:31:20.763Z,2.5
2023-02-04T05:32:24.356Z,2.5
2023-02-04T05:33:27.551Z,2.5
2023-02-04T05:34:30.998Z,2.5
2023-02-04T05:35:33.866Z,2.5
2023-02-04T05:36:36.884Z,2.5
2023-02-04T05:37:40.247Z,2.5
2023-02-04T05:38:43.606Z,2.5
2023-02-04T05:39:46.394Z,2.5
2023-02-04T05:40:49.675Z,2.5
2023-02-04T05:41:53.073Z,2.5
2023-02-04T05:42:56.517Z,2.5
2023-02-04T05:43:58.674Z,2.5
2023-02-04T05:45:02.724Z,2.5
2023-02-04T05:46:07.343Z,2.5
2023-02-04T05:47:10.375Z,2.5
2023-02-04T05:48:14.162Z,2.5
2023-02-04T05:49:17.205Z,2.4
2023-02-04T05:50:20.904Z,2.4
2023-02-04T05:51:23.609Z,2.4
2023-02-04T05:52:26.763Z,2.4
2023-02-04T05:53:30.836Z,2.4
2023-02-04T05:54:33.622Z,2.4
2023-02-04T05:55:36.836Z,2.4
2023-02-04T05:56:40.636Z,2.4
2023-02-04T05:57:43.419Z,2.4
2023-02-04T05:58:46.279Z,2.4
2023-02-04T05:59:49.339Z,2.4
2023-02-04T06:00:52.395Z,2.4
2023-02-04T06:01:55.875Z,2.3
2023-02-04T06:02:59.449Z,2.3
2023-02-04T06:04:03.137Z,2.3
2023-02-04T06:05:06.019Z,2.3
2023-02-04T06:06:09.632Z,2.3
2023-02-04T06:07:13.267Z,2.3
2023-02-04T06:08:15.684Z,2.2
2023-02-04T06:09:19.065Z,2.2
2023-02-04T06:10:22.145Z,2.2
2023-02-04T06:11:25.215Z,2.1
2023-02-04T06:12:27.805Z,2.1
2023-02-04T06:13:30.359Z,2.1
2023-02-04T06:14:33.457Z,2.1
2023-02-04T06:15:36.830Z,2.1
2023-02-04T06:16:40.332Z,2.1
2023-02-04T06:17:44.211Z,2
2023-02-04T06:18:47.945Z,2
2023-02-04T06:19:51.383Z,2
2023-02-04T06:20:55.183Z,2
2023-02-04T06:21:57.948Z,1.9
2023-02-04T06:23:01.074Z,1.9
2023-02-04T06:24:07.070Z,1.9
2023-02-04T06:25:09.899Z,1.8
2023-02-04T06:26:13.528Z,1.8
2023-02-04T06:27:16.649Z,1.8
2023-02-04T06:28:20.462Z,1.7
2023-02-04T06:29:24.034Z,1.7
2023-02-04T06:30:27.192Z,1.6
2023-02-04T06:31:31.993Z,1.6
2023-02-04T06:32:35.476Z,1.5
2023-02-04T06:33:39.230Z,1.5
2023-02-04T06:34:42.210Z,1.5
2023-02-04T06:35:46.216Z,1.4
2023-02-04T06:36:49.924Z,1.4
2023-02-04T06:37:52.905Z,1.4
2023-02-04T06:38:56.298Z,1.3
2023-02-04T06:39:59.383Z,1.3
2023-02-04T06:41:02.289Z,1.3
2023-02-04T06:42:05.436Z,1.3
2023-02-04T06:43:08.799Z,1.2
2023-02-04T06:44:12.505Z,1.2
2023-02-04T06:45:15.862Z,1.2
2023-02-04T06:46:18.999Z,1.1
2023-02-04T06:47:22.192Z,1.1
2023-02-04T06:48:25.689Z,1.1
2023-02-04T06:49:29.504Z,1.1
2023-02-04T06:50:34.533Z,1
2023-02-04T06:51:37.393Z,1
2023-02-04T06:52:41.089Z,1
2023-02-04T06:53:44.132Z,1
2023-02-04T06:54:47.342Z,1
2023-02-04T06:55:50.734Z,0.9
2023-02-04T06:56:53.792Z,0.9
2023-02-04T06:57:56.873Z,0.9
2023-02-04T06:59:03.619Z,0.9
2023-02-04T07:00:06.980Z,0.9
2023-02-04T07:01:10.106Z,0.9
2023-02-04T07:02:13.357Z,0.8
2023-02-04T07:03:16.862Z,0.8
2023-02-04T07:04:20.155Z,0.8
2023-02-04T07:05:24.211Z,0.8
2023-02-04T07:06:27.189Z,0.8
2023-02-04T07:07:30.627Z,0.7
2023-02-04T07:08:34.038Z,0.7
2023-02-04T07:09:37.164Z,0.7
2023-02-04T07:10:40.320Z,0.7
2023-02-04T07:11:43.337Z,0.7
2023-02-04T07:12:46.049Z,0.7
2023-02-04T07:13:49.021Z,0.7
2023-02-04T07:14:52.078Z,0.7
2023-02-04T07:15:55.423Z,0.7
2023-02-04T07:16:57.674Z,0.7
2023-02-04T07:18:00.821Z,0.7
2023-02-04T07:19:04.909Z,0.7
2023-02-04T07:20:08.656Z,0.6
2023-02-04T07:21:12.483Z,0.6
2023-02-04T07:22:14.972Z,0.6
2023-02-04T07:23:18.684Z,0.6
2023-02-04T07:24:22.462Z,0.6
2023-02-04T07:25:25.958Z,0.6
2023-02-04T07:26:29.100Z,0.6
2023-02-04T07:27:31.910Z,0.6
2023-02-04T07:28:34.771Z,0.6
2023-02-04T07:29:38.124Z,0.6
2023-02-04T07:30:41.527Z,0.6
2023-02-04T07:31:45.686Z,0.6
2023-02-04T07:32:49.279Z,0.6
2023-02-04T07:33:52.716Z,0.7
2023-02-04T07:34:55.144Z,0.7
2023-02-04T07:35:58.899Z,0.7
2023-02-04T07:37:03.148Z,0.7
2023-02-04T07:38:06.748Z,0.7
2023-02-04T07:39:10.164Z,0.8
2023-02-04T07:40:13.908Z,0.8
2023-02-04T07:41:17.269Z,0.8
2023-02-04T07:42:20.979Z,0.8
2023-02-04T07:43:24.238Z,0.8
2023-02-04T07:44:27.511Z,0.9
2023-02-04T07:45:30.399Z,0.9
2023-02-04T07:46:34.545Z,0.9
2023-02-04T07:47:38.069Z,0.9
2023-02-04T07:48:41.099Z,0.9
2023-02-04T07:49:44.183Z,0.9
2023-02-04T07:50:47.452Z,0.9
2023-02-04T07:51:50.630Z,0.9
2023-02-04T07:52:54.397Z,0.9
2023-02-04T07:53:58.508Z,0.9
2023-02-04T07:55:02.024Z,0.9
2023-02-04T07:56:05.003Z,0.9
2023-02-04T07:57:08.787Z,0.9
2023-02-04T07:58:11.849Z,1
2023-02-04T07:59:14.561Z,1
2023-02-04T08:00:17.458Z,1
2023-02-04T08:01:21.124Z,1
2023-02-04T08:02:24.812Z,1.1
2023-02-04T08:03:28.343Z,1.1
2023-02-04T08:04:31.415Z,1.1
2023-02-04T08:05:33.913Z,1.1
2023-02-04T08:06:36.339Z,1.2
2023-02-04T08:07:40.091Z,1.2
2023-02-04T08:08:43.804Z,1.2
2023-02-04T08:09:46.850Z,1.2
2023-02-04T08:10:50.612Z,1.3
2023-02-04T08:11:53.674Z,1.3
2023-02-04T08:12:57.393Z,1.3
2023-02-04T08:14:00.137Z,1.3
2023-02-04T08:15:03.481Z,1.3
2023-02-04T08:16:07.353Z,1.3
2023-02-04T08:17:10.543Z,1.3
2023-02-04T08:18:13.000Z,1.4
2023-02-04T08:19:16.707Z,1.4
2023-02-04T08:20:20.036Z,1.4
2023-02-04T08:21:23.813Z,1.4
2023-02-04T08:22:26.909Z,1.4
2023-02-04T08:23:30.381Z,1.5
2023-02-04T08:24:34.236Z,1.5
2023-02-04T08:25:37.569Z,1.5
2023-02-04T08:26:40.714Z,1.5
2023-02-04T08:27:44.026Z,1.5
2023-02-04T08:28:46.568Z,1.5
2023-02-04T08:29:50.286Z,1.6
2023-02-04T08:30:53.871Z,1.6
2023-02-04T08:31:57.137Z,1.7
2023-02-04T08:33:00.497Z,1.7
2023-02-04T08:34:03.833Z,1.8
2023-02-04T08:35:08.499Z,1.8
2023-02-04T08:36:11.382Z,1.8
2023-02-04T08:37:14.461Z,1.9
2023-02-04T08:38:18.136Z,1.9
2023-02-04T08:39:22.825Z,2
2023-02-04T08:40:27.171Z,2
2023-02-04T08:41:30.328Z,2.1
2023-02-04T08:42:33.505Z,2.1
2023-02-04T08:43:37.230Z,2.1
2023-02-04T08:44:40.248Z,2.2
2023-02-04T08:45:43.263Z,2.2
2023-02-04T08:46:46.983Z,2.2
2023-02-04T08:47:50.756Z,2.3
2023-02-04T08:48:54.095Z,2.3
2023-02-04T08:49:57.202Z,2.4
2023-02-04T08:50:59.739Z,2.4
2023-02-04T08:52:02.726Z,2.4
2023-02-04T08:53:06.045Z,2.5
2023-02-04T08:54:08.913Z,2.5
2023-02-04T08:55:12.658Z,2.5
2023-02-04T08:56:16.736Z,2.6
2023-02-04T08:57:20.177Z,2.6
2023-02-04T08:58:23.260Z,2.7
2023-02-04T08:59:26.737Z,2.7
2023-02-04T09:00:29.839Z,2.8
2023-02-04T09:01:33.596Z,2.8
2023-02-04T09:02:37.146Z,2.8
2023-02-04T09:03:39.954Z,2.9
2023-02-04T09:04:42.940Z,3
2023-02-04T09:05:46.709Z,3
2023-02-04T09:06:50.149Z,3.1
2023-02-04T09:07:53.893Z,3.1
2023-02-04T09:08:57.311Z,3.2
2023-02-04T09:10:00.311Z,3.2
2023-02-04T09:11:03.622Z,3.2
2023-02-04T09:12:07.785Z,3.2
2023-02-04T09:13:10.866Z,3.2
2023-02-04T09:14:14.134Z,3.2
2023-02-04T09:15:16.840Z,3.2
2023-02-04T09:16:19.487Z,3.3
2023-02-04T09:17:22.404Z,3.3
2023-02-04T09:18:25.479Z,3.4
2023-02-04T09:19:28.562Z,3.5
2023-02-04T09:20:33.698Z,3.6
2023-02-04T09:21:37.806Z,3.7
2023-02-04T09:22:41.146Z,3.7
2023-02-04T09:23:44.321Z,3.8
2023-02-04T09:24:47.313Z,3.8
2023-02-04T09:25:50.696Z,3.8
2023-02-04T09:26:54.472Z,3.8
2023-02-04T09:27:58.264Z,3.8
2023-02-04T09:29:01.685Z,3.8
2023-02-04T09:30:05.130Z,3.8
2023-02-04T09:31:08.045Z,3.9
2023-02-04T09:32:11.852Z,3.9
2023-02-04T09:33:14.549Z,3.9
2023-02-04T09:34:17.363Z,3.8
2023-02-04T09:35:20.615Z,3.8
2023-02-04T09:36:23.682Z,3.9
2023-02-04T09:37:27.057Z,3.9
2023-02-04T09:38:30.281Z,4
2023-02-04T09:39:34.023Z,4
2023-02-04T09:40:37.435Z,4.1
2023-02-04T09:41:41.146Z,4.1
2023-02-04T09:42:44.615Z,4.1
2023-02-04T09:43:48.446Z,4.2
2023-02-04T09:44:51.813Z,4.2
2023-02-04T09:45:55.774Z,4.3
2023-02-04T09:46:59.919Z,4.2
2023-02-04T09:48:03.013Z,4.2
2023-02-04T09:49:05.996Z,4.2
2023-02-04T09:50:09.349Z,4.3
2023-02-04T09:51:12.494Z,4.3
2023-02-04T09:52:15.479Z,4.4
2023-02-04T09:53:19.164Z,4.4
2023-02-04T09:54:21.984Z,4.5
2023-02-04T09:55:25.499Z,4.5
2023-02-04T09:56:28.478Z,4.6
2023-02-04T09:57:31.956Z,4.6
2023-02-04T09:58:35.494Z,4.6
2023-02-04T09:59:39.241Z,4.7
2023-02-04T10:00:42.529Z,5
2023-02-04T10:01:45.250Z,5.3
2023-02-04T10:02:48.878Z,5.5
2023-02-04T10:03:52.821Z,5.8
2023-02-04T10:04:55.919Z,6
2023-02-04T10:05:59.047Z,6.3
2023-02-04T10:07:02.991Z,6.4
2023-02-04T10:08:05.701Z,6.5
2023-02-04T10:09:08.820Z,6.8
2023-02-04T10:10:12.000Z,7
2023-02-04T10:11:15.065Z,7.1
2023-02-04T10:12:18.448Z,7.8
2023-02-04T10:13:21.785Z,8.6
2023-02-04T10:14:24.804Z,8.8
2023-02-04T10:15:28.868Z,8.8
2023-02-04T10:16:32.448Z,8.9
2023-02-04T10:17:35.751Z,8.9
2023-02-04T10:18:39.098Z,9
2023-02-04T10:19:42.201Z,9
2023-02-04T10:20:45.267Z,9
2023-02-04T10:21:48.663Z,9
2023-02-04T10:22:52.354Z,9.1
2023-02-04T10:23:55.550Z,9.2
2023-02-04T10:24:58.617Z,9.4
2023-02-04T10:26:02.069Z,9.5
2023-02-04T10:27:05.431Z,9.6
2023-02-04T10:28:08.378Z,9.7
2023-02-04T10:29:11.636Z,9.8
2023-02-04T10:30:15.423Z,9.9
2023-02-04T10:31:20.353Z,10.1
2023-02-04T10:32:23.640Z,10.2
2023-02-04T10:33:27.139Z,10.3
2023-02-04T10:34:30.535Z,10.3
2023-02-04T10:35:33.869Z,10.5
2023-02-04T10:36:36.955Z,10.4
2023-02-04T10:37:40.305Z,10.5
2023-02-04T10:38:43.646Z,10.6
2023-02-04T10:39:46.719Z,10.6
2023-02-04T10:40:49.885Z,10.7
2023-02-04T10:41:53.016Z,10.7
2023-02-04T10:42:56.181Z,10.6
2023-02-04T10:43:59.247Z,10.6
2023-02-04T10:45:03.141Z,10.7
2023-02-04T10:46:06.433Z,10.8
2023-02-04T10:47:10.256Z,10.9
2023-02-04T10:48:13.249Z,10.9
2023-02-04T10:49:15.957Z,11
2023-02-04T10:50:19.743Z,11
2023-02-04T10:51:23.182Z,11
2023-02-04T10:52:26.168Z,11
2023-02-04T10:53:30.139Z,11.1
2023-02-04T10:54:33.865Z,11.1
2023-02-04T10:55:38.079Z,11.2
2023-02-04T10:56:41.587Z,11.3
2023-02-04T10:57:46.207Z,11.1
2023-02-04T10:58:49.390Z,10.9
2023-02-04T10:59:53.247Z,10.9
2023-02-04T11:00:57.075Z,10.7
2023-02-04T11:02:01.109Z,10.6
2023-02-04T11:03:05.738Z,10.6
2023-02-04T11:04:09.262Z,10.7
2023-02-04T11:05:12.909Z,10.8
2023-02-04T11:06:16.469Z,10.9
2023-02-04T11:07:19.989Z,11.1
2023-02-04T11:08:23.708Z,11.2
2023-02-04T11:09:27.792Z,11.3
2023-02-04T11:10:33.979Z,11.4
2023-02-04T11:11:38.808Z,11.6
2023-02-04T11:12:42.690Z,11.5
2023-02-04T11:13:46.626Z,11.6
2023-02-04T11:14:50.673Z,11.5
2023-02-04T11:15:54.119Z,11.6
2023-02-04T11:16:58.851Z,11.5
2023-02-04T11:18:02.398Z,11.4
2023-02-04T11:19:07.106Z,11.4
2023-02-04T11:20:10.965Z,11.3
2023-02-04T11:21:14.631Z,11.1
2023-02-04T11:22:18.716Z,10.9
2023-02-04T11:23:22.403Z,10.6
2023-02-04T11:24:26.452Z,10.4
2023-02-04T11:25:29.914Z,10.2
2023-02-04T11:26:34.661Z,9.9
2023-02-04T11:27:38.069Z,9.9
2023-02-04T11:28:41.616Z,10
2023-02-04T11:29:45.466Z,10.3
2023-02-04T11:30:49.231Z,10.5
2023-02-04T11:31:54.160Z,10.7
2023-02-04T11:32:58.077Z,11
2023-02-04T11:34:02.257Z,11.2
2023-02-04T11:35:06.603Z,11.4
2023-02-04T11:36:10.100Z,11.6
2023-02-04T11:37:14.282Z,11.8
2023-02-04T11:38:17.406Z,12
2023-02-04T11:39:21.132Z,12.1
2023-02-04T11:40:25.647Z,12.3
2023-02-04T11:41:29.014Z,12.3
2023-02-04T11:42:32.677Z,12.4
2023-02-04T11:43:36.765Z,12.5
2023-02-04T11:44:40.593Z,12.7
2023-02-04T11:45:45.407Z,12.7
2023-02-04T11:46:48.568Z,12.7
2023-02-04T11:47:51.656Z,12.9
2023-02-04T11:48:55.460Z,12.9
2023-02-04T11:49:59.453Z,12.9
2023-02-04T11:51:03.292Z,13
2023-02-04T11:52:07.041Z,13
2023-02-04T11:53:10.624Z,12.8
2023-02-04T11:54:14.263Z,12.5
2023-02-04T11:55:18.493Z,12.6
2023-02-04T11:56:22.406Z,12.7
2023-02-04T11:57:25.688Z,12.8
2023-02-04T11:58:28.759Z,12.8
2023-02-04T11:59:32.752Z,12.8
2023-02-04T12:00:35.906Z,12.8
2023-02-04T12:01:39.337Z,12.8
2023-02-04T12:02:42.463Z,13
2023-02-04T12:03:46.492Z,13.1
2023-02-04T12:04:50.195Z,13.2
2023-02-04T12:05:53.735Z,13.4
2023-02-04T12:06:57.858Z,13.5
2023-02-04T12:08:01.002Z,13.6
2023-02-04T12:09:04.080Z,13.7
2023-02-04T12:10:08.075Z,13.8
2023-02-04T12:11:11.180Z,13.8
2023-02-04T12:12:15.188Z,13.8
2023-02-04T12:13:17.971Z,13.9
2023-02-04T12:14:21.316Z,13.9
2023-02-04T12:15:24.627Z,13.9
2023-02-04T12:16:28.453Z,13.9
2023-02-04T12:17:32.316Z,13.9
2023-02-04T12:18:35.580Z,14
2023-02-04T12:19:38.969Z,14
2023-02-04T12:20:42.302Z,14
2023-02-04T12:21:46.104Z,13.9
2023-02-04T12:22:49.872Z,13.9
2023-02-04T12:23:53.024Z,13.9
2023-02-04T12:24:55.806Z,13.9
2023-02-04T12:25:59.395Z,13.9
2023-02-04T12:27:02.194Z,13.9
2023-02-04T12:28:06.077Z,13.9
2023-02-04T12:29:09.790Z,13.9
2023-02-04T12:30:13.898Z,14
2023-02-04T12:31:17.824Z,14.1
2023-02-04T12:32:21.064Z,14.1
2023-02-04T12:33:24.802Z,14.1
2023-02-04T12:34:27.811Z,14.2
2023-02-04T12:35:31.496Z,14.2
2023-02-04T12:36:35.183Z,14.1
2023-02-04T12:37:38.380Z,14.1
2023-02-04T12:38:42.496Z,14.1
2023-02-04T12:39:45.938Z,14
2023-02-04T12:40:48.161Z,14.1
2023-02-04T12:41:50.955Z,14.1
2023-02-04T12:42:53.746Z,14.1
2023-02-04T12:43:56.493Z,14.2
2023-02-04T12:44:59.295Z,14.2
2023-02-04T12:46:02.032Z,14.2
2023-02-04T12:47:05.641Z,14.1
2023-02-04T12:48:09.222Z,14.1
2023-02-04T12:49:12.278Z,14
2023-02-04T12:50:15.295Z,14
2023-02-04T12:51:18.572Z,14.1
2023-02-04T12:52:21.368Z,14
2023-02-04T12:53:24.912Z,13.9
2023-02-04T12:54:28.938Z,13.8
2023-02-04T12:55:34.785Z,13.8
2023-02-04T12:56:38.477Z,13.8
2023-02-04T12:57:41.552Z,13.9
2023-02-04T12:58:44.354Z,13.8
2023-02-04T12:59:47.708Z,13.9
2023-02-04T13:00:51.017Z,13.9
2023-02-04T13:01:54.203Z,13.9
2023-02-04T13:02:57.364Z,13.9
2023-02-04T13:04:00.442Z,13.9
2023-02-04T13:05:03.519Z,13.9
2023-02-04T13:06:21.533Z,13.7
2023-02-04T13:07:25.476Z,13.7
2023-02-04T13:08:28.637Z,13.6
2023-02-04T13:09:32.106Z,13.6
2023-02-04T13:10:35.020Z,13.6
2023-02-04T13:11:38.649Z,13.6
2023-02-04T13:12:41.711Z,13.5
2023-02-04T13:13:44.794Z,13.4
2023-02-04T13:14:48.122Z,13.4
2023-02-04T13:15:51.110Z,13.4
2023-02-04T13:16:54.403Z,13.4
2023-02-04T13:17:57.825Z,13.4
2023-02-04T13:19:01.568Z,13.4
2023-02-04T13:20:05.655Z,13.5
2023-02-04T13:21:09.100Z,13.4
2023-02-04T13:22:12.363Z,13.3
2023-02-04T13:23:16.093Z,13.3
2023-02-04T13:24:19.514Z,13.2
2023-02-04T13:25:23.341Z,13.2
2023-02-04T13:26:26.134Z,13.3
2023-02-04T13:27:29.907Z,13.3
2023-02-04T13:28:33.015Z,13.3
2023-02-04T13:29:36.297Z,13.3
2023-02-04T13:30:39.305Z,13.3
2023-02-04T13:31:42.705Z,13.2
2023-02-04T13:32:45.227Z,13.2
2023-02-04T13:33:48.297Z,13.1
2023-02-04T13:34:51.941Z,13.1
2023-02-04T13:35:55.031Z,13
2023-02-04T13:36:58.685Z,12.9
2023-02-04T13:38:02.416Z,12.9
2023-02-04T13:39:06.408Z,12.7
2023-02-04T13:40:10.834Z,12.7
2023-02-04T13:41:14.807Z,12.6
2023-02-04T13:42:18.087Z,12.6
2023-02-04T13:43:21.483Z,12.4
2023-02-04T13:44:24.210Z,12.3
2023-02-04T13:45:27.185Z,12.3
2023-02-04T13:46:30.294Z,12.1
2023-02-04T13:47:34.365Z,12
2023-02-04T13:48:38.361Z,11.8
2023-02-04T13:49:42.063Z,11.5
2023-02-04T13:50:45.777Z,11.2
2023-02-04T13:51:48.487Z,11
2023-02-04T13:52:51.831Z,10.7
2023-02-04T13:53:54.937Z,10.6
2023-02-04T13:54:59.034Z,10.4
2023-02-04T13:56:02.420Z,10.3
2023-02-04T13:57:06.487Z,10.2
2023-02-04T13:58:09.638Z,10.1
2023-02-04T13:59:12.359Z,10.1
2023-02-04T14:00:15.414Z,9.9
2023-02-04T14:01:19.091Z,9.8
2023-02-04T14:02:22.722Z,9.7
2023-02-04T14:03:26.111Z,9.6
2023-02-04T14:04:29.469Z,9.4
2023-02-04T14:06:40.174Z,9.2
2023-02-04T14:07:43.881Z,9.1
2023-02-04T14:08:46.961Z,9.1
2023-02-04T14:09:50.800Z,9.1
2023-02-04T14:10:53.879Z,9.1
2023-02-04T14:11:57.364Z,9.1
2023-02-04T14:13:01.220Z,9
2023-02-04T14:14:05.605Z,8.9
2023-02-04T14:15:08.102Z,8.9
2023-02-04T14:16:11.584Z,8.8
2023-02-04T14:17:14.376Z,8.7
2023-02-04T14:19:27.709Z,8.5
2023-02-04T14:20:33.023Z,8.5
2023-02-04T14:21:37.496Z,8.4
2023-02-04T14:22:41.212Z,8.3
2023-02-04T14:23:45.011Z,8.2
2023-02-04T14:24:48.813Z,8.1
2023-02-04T14:25:53.208Z,8
2023-02-04T14:26:57.706Z,7.9
2023-02-04T14:28:02.599Z,7.9
2023-02-04T14:29:06.462Z,7.8
2023-02-04T14:30:09.527Z,7.7
2023-02-04T14:31:12.041Z,7.7
2023-02-04T14:32:15.417Z,7.7
2023-02-04T14:33:18.386Z,7.6
2023-02-04T14:34:22.134Z,7.5